createdAt,value
2018-08-06T00:01:02.596Z,21.18
2018-08-06T00:04:09.445Z,21.24
2018-08-06T00:07:15.729Z,21.25
2018-08-06T00:10:24.823Z,21.18
2018-08-06T00:13:31.197Z,21.10
2018-08-06T00:16:37.970Z,21.14
2018-08-06T00:19:44.552Z,21.18
2018-08-06T00:22:51.410Z,21.11
2018-08-06T00:25:58.003Z,21.02
2018-08-06T00:29:04.864Z,20.98
2018-08-06T00:32:11.480Z,20.96
2018-08-06T00:35:18.551Z,20.91
2018-08-06T00:38:25.764Z,20.90
2018-08-06T00:41:32.663Z,20.89
2018-08-06T00:44:39.176Z,20.83
2018-08-06T00:47:46.229Z,20.77
2018-08-06T00:50:53.902Z,20.77
2018-08-06T00:54:00.935Z,20.79
2018-08-06T00:57:07.777Z,20.73
2018-08-06T01:00:19.151Z,20.70
2018-08-06T01:03:26.062Z,20.56
2018-08-06T01:06:32.907Z,20.49
2018-08-06T01:09:39.774Z,20.57
2018-08-06T01:12:47.948Z,20.62
2018-08-06T01:15:53.679Z,20.63
2018-08-06T01:19:00.524Z,20.55
2018-08-06T01:22:07.277Z,20.53
2018-08-06T01:25:14.221Z,20.45
2018-08-06T01:28:21.397Z,20.33
2018-08-06T01:31:28.371Z,20.29
2018-08-06T01:34:35.544Z,20.31
2018-08-06T01:37:42.148Z,20.38
2018-08-06T01:40:48.699Z,20.33
2018-08-06T01:43:55.532Z,20.30
2018-08-06T01:47:02.384Z,20.26
2018-08-06T01:50:10.570Z,20.17
2018-08-06T01:53:17.815Z,20.14
2018-08-06T01:56:24.321Z,20.04
2018-08-06T01:59:30.906Z,19.98
2018-08-06T02:02:37.737Z,20.06
2018-08-06T02:05:44.240Z,20.17
2018-08-06T02:08:51.087Z,20.16
2018-08-06T02:11:58.159Z,19.93
2018-08-06T02:15:06.402Z,19.73
2018-08-06T02:18:13.347Z,19.66
2018-08-06T02:21:20.558Z,19.75
2018-08-06T02:24:27.609Z,19.88
2018-08-06T02:27:34.467Z,19.94
2018-08-06T02:30:41.313Z,19.84
2018-08-06T02:33:48.209Z,19.78
2018-08-06T02:36:55.351Z,19.91
2018-08-06T02:40:02.207Z,19.93
2018-08-06T02:43:08.756Z,19.95
2018-08-06T02:46:15.600Z,19.97
2018-08-06T02:49:22.783Z,19.85
2018-08-06T02:52:29.693Z,19.79
2018-08-06T02:55:36.531Z,19.83
2018-08-06T02:58:43.852Z,19.82
2018-08-06T03:01:50.748Z,19.81
2018-08-06T03:04:57.927Z,19.83
2018-08-06T03:08:04.776Z,19.87
2018-08-06T03:11:11.469Z,19.69
2018-08-06T03:14:18.226Z,19.46
2018-08-06T03:17:24.757Z,19.34
2018-08-06T03:20:31.274Z,19.36
2018-08-06T03:23:37.983Z,19.48
2018-08-06T03:26:44.732Z,19.61
2018-08-06T03:29:51.926Z,19.68
2018-08-06T03:32:58.645Z,19.72
2018-08-06T03:36:05.407Z,19.68
2018-08-06T03:39:12.282Z,19.60
2018-08-06T03:42:19.697Z,19.51
2018-08-06T03:45:26.208Z,19.46
2018-08-06T03:48:33.065Z,19.50
2018-08-06T03:51:40.351Z,19.56
2018-08-06T03:54:47.201Z,19.34
2018-08-06T03:57:53.776Z,19.19
2018-08-06T04:01:00.549Z,19.30
2018-08-06T04:04:07.787Z,19.35
2018-08-06T04:07:14.588Z,19.38
2018-08-06T04:10:21.442Z,19.42
2018-08-06T04:13:28.880Z,19.42
2018-08-06T04:16:46.057Z,19.45
2018-08-06T04:19:52.891Z,19.52
2018-08-06T04:23:00.504Z,19.55
2018-08-06T04:26:07.595Z,19.54
2018-08-06T04:29:14.747Z,19.53
2018-08-06T04:32:21.372Z,19.55
2018-08-06T04:35:28.128Z,19.56
2018-08-06T04:38:34.449Z,19.51
2018-08-06T04:41:41.511Z,19.50
2018-08-06T04:44:48.267Z,19.54
2018-08-06T04:47:54.521Z,19.53
2018-08-06T04:51:01.288Z,19.54
2018-08-06T04:54:08.177Z,19.59
2018-08-06T04:57:15.019Z,19.59
2018-08-06T05:00:21.785Z,19.66
2018-08-06T05:03:28.682Z,19.72
2018-08-06T05:06:35.530Z,19.69
2018-08-06T05:09:44.052Z,19.68
2018-08-06T05:12:50.343Z,19.72
2018-08-06T05:15:56.762Z,19.82
2018-08-06T05:19:03.876Z,19.89
2018-08-06T05:22:10.799Z,19.99
2018-08-06T05:25:17.910Z,20.08
2018-08-06T05:28:24.741Z,20.05
2018-08-06T05:31:31.344Z,20.05
2018-08-06T05:34:38.386Z,20.19
2018-08-06T05:37:45.500Z,20.50
2018-08-06T05:40:52.326Z,20.91
2018-08-06T05:43:58.871Z,21.18
2018-08-06T05:47:06.080Z,21.46
2018-08-06T05:50:14.422Z,21.85
2018-08-06T05:53:21.761Z,22.23
2018-08-06T05:56:28.594Z,22.52
2018-08-06T05:59:35.181Z,22.78
2018-08-06T06:02:42.011Z,23.09
2018-08-06T06:05:48.867Z,23.40
2018-08-06T06:08:55.879Z,23.65
2018-08-06T06:12:02.762Z,23.83
2018-08-06T06:15:14.418Z,23.93
2018-08-06T06:18:21.253Z,24.01
2018-08-06T06:21:28.270Z,24.18
2018-08-06T06:24:35.135Z,24.33
2018-08-06T06:27:43.009Z,24.49
2018-08-06T06:30:50.135Z,24.76
2018-08-06T06:33:56.827Z,25.04
2018-08-06T06:37:03.606Z,25.30
2018-08-06T06:40:10.479Z,25.52
2018-08-06T06:43:17.182Z,25.49
2018-08-06T06:46:23.944Z,25.15
2018-08-06T06:49:30.787Z,24.65
2018-08-06T06:52:37.500Z,24.27
2018-08-06T06:55:44.366Z,24.02
2018-08-06T06:58:51.560Z,23.80
2018-08-06T07:01:58.508Z,23.58
2018-08-06T07:05:06.465Z,23.38
2018-08-06T07:08:12.749Z,23.27
2018-08-06T07:11:19.667Z,23.22
2018-08-06T07:14:26.527Z,23.30
2018-08-06T07:17:33.377Z,23.44
2018-08-06T07:20:39.647Z,23.54
2018-08-06T07:23:46.490Z,23.63
2018-08-06T07:26:53.338Z,23.70
2018-08-06T07:30:00.204Z,23.80
2018-08-06T07:33:07.107Z,23.92
2018-08-06T07:36:14.289Z,24.09
2018-08-06T07:39:21.125Z,24.17
2018-08-06T07:42:27.727Z,24.14
2018-08-06T07:45:34.528Z,24.05
2018-08-06T07:48:41.390Z,24.13
2018-08-06T07:51:48.222Z,24.13
2018-08-06T07:54:55.065Z,24.05
2018-08-06T07:58:01.593Z,24.03
2018-08-06T08:01:08.433Z,24.04
2018-08-06T08:04:15.548Z,24.08
2018-08-06T08:07:22.007Z,24.19
2018-08-06T08:10:28.522Z,24.29
2018-08-06T08:13:35.153Z,24.37
2018-08-06T08:16:41.921Z,24.49
2018-08-06T08:19:48.842Z,24.58
2018-08-06T08:22:55.384Z,24.47
2018-08-06T08:26:02.207Z,24.42
2018-08-06T08:29:08.808Z,24.39
2018-08-06T08:32:15.579Z,24.39
2018-08-06T08:35:28.286Z,24.44
2018-08-06T08:38:35.129Z,24.48
2018-08-06T08:41:42.018Z,24.60
2018-08-06T08:44:48.830Z,24.80
2018-08-06T08:47:55.423Z,24.97
2018-08-06T08:51:02.176Z,25.09
2018-08-06T08:54:08.761Z,25.09
2018-08-06T08:57:15.892Z,25.13
2018-08-06T09:00:23.568Z,25.21
2018-08-06T09:03:30.419Z,25.27
2018-08-06T09:06:37.346Z,25.32
2018-08-06T09:09:43.775Z,25.37
2018-08-06T09:12:50.405Z,25.37
2018-08-06T09:15:56.982Z,25.37
2018-08-06T09:19:03.222Z,25.37
2018-08-06T09:22:09.991Z,25.39
2018-08-06T09:25:16.972Z,25.48
2018-08-06T09:28:23.579Z,25.60
2018-08-06T09:31:30.352Z,25.63
2018-08-06T09:34:37.187Z,25.72
2018-08-06T09:37:44.203Z,25.78
2018-08-06T09:40:50.484Z,25.84
2018-08-06T09:43:57.273Z,25.89
2018-08-06T09:47:03.925Z,25.90
2018-08-06T09:50:11.754Z,25.91
2018-08-06T09:53:18.808Z,25.98
2018-08-06T09:56:25.693Z,26.16
2018-08-06T09:59:32.294Z,26.31
2018-08-06T10:02:39.096Z,26.47
2018-08-06T10:05:46.277Z,26.58
2018-08-06T10:08:52.819Z,26.62
2018-08-06T10:11:59.647Z,26.61
2018-08-06T10:15:07.563Z,26.60
2018-08-06T10:18:14.419Z,26.67
2018-08-06T10:21:21.266Z,26.77
2018-08-06T10:24:28.140Z,26.97
2018-08-06T10:27:34.948Z,27.18
2018-08-06T10:30:41.977Z,27.36
2018-08-06T10:33:48.767Z,27.54
2018-08-06T10:36:55.365Z,27.77
2018-08-06T10:40:02.145Z,27.95
2018-08-06T10:43:08.851Z,28.10
2018-08-06T10:46:15.505Z,28.24
2018-08-06T10:49:22.800Z,28.24
2018-08-06T10:52:29.643Z,28.11
2018-08-06T10:55:36.524Z,28.10
2018-08-06T10:58:43.426Z,28.09
2018-08-06T11:01:50.034Z,28.00
2018-08-06T11:04:57.193Z,28.05
2018-08-06T11:08:03.824Z,28.16
2018-08-06T11:11:10.336Z,28.25
2018-08-06T11:14:17.015Z,28.33
2018-08-06T11:17:23.517Z,28.40
2018-08-06T11:20:30.434Z,28.51
2018-08-06T11:23:37.716Z,28.57
2018-08-06T11:26:44.549Z,28.43
2018-08-06T11:29:51.147Z,28.42
2018-08-06T11:32:57.837Z,28.55
2018-08-06T11:36:04.929Z,28.69
2018-08-06T11:39:12.804Z,28.78
2018-08-06T11:42:19.644Z,28.79
2018-08-06T11:45:26.522Z,28.82
2018-08-06T11:48:33.728Z,28.98
2018-08-06T11:51:40.335Z,29.24
2018-08-06T11:54:48.343Z,29.64
2018-08-06T11:57:55.220Z,30.06
2018-08-06T12:01:02.066Z,30.32
2018-08-06T12:04:09.323Z,30.28
2018-08-06T12:07:16.211Z,30.26
2018-08-06T12:10:23.053Z,30.38
2018-08-06T12:13:30.008Z,30.58
2018-08-06T12:16:36.883Z,30.78
2018-08-06T12:19:43.727Z,30.88
2018-08-06T12:22:52.036Z,30.90
2018-08-06T12:25:58.900Z,30.99
2018-08-06T12:29:05.492Z,31.24
2018-08-06T12:32:12.587Z,31.59
2018-08-06T12:35:19.550Z,31.75
2018-08-06T12:38:55.965Z,32.04
2018-08-06T12:42:02.798Z,32.46
2018-08-06T12:45:11.451Z,33.08
2018-08-06T12:48:17.789Z,33.83
2018-08-06T12:51:24.808Z,34.61
2018-08-06T12:54:31.581Z,35.37
2018-08-06T12:57:39.350Z,36.04
2018-08-06T13:00:46.212Z,36.49
2018-08-06T13:03:52.935Z,36.74
2018-08-06T13:06:59.362Z,36.35
2018-08-06T13:10:06.893Z,36.20
2018-08-06T13:13:13.696Z,36.58
2018-08-06T13:16:20.930Z,36.09
2018-08-06T13:19:27.549Z,35.83
2018-08-06T13:22:34.322Z,36.02
2018-08-06T13:25:42.687Z,35.93
2018-08-06T13:28:48.661Z,35.85
2018-08-06T13:31:55.273Z,35.56
2018-08-06T13:35:02.262Z,35.21
2018-08-06T13:38:09.011Z,34.51
2018-08-06T13:41:15.620Z,33.79
2018-08-06T13:44:22.155Z,33.58
2018-08-06T13:47:28.967Z,33.60
2018-08-06T13:50:35.942Z,33.56
2018-08-06T13:53:42.811Z,33.41
2018-08-06T13:56:50.114Z,33.15
2018-08-06T13:59:57.372Z,32.95
2018-08-06T14:03:04.211Z,32.90
2018-08-06T14:06:11.459Z,32.62
2018-08-06T14:09:18.065Z,32.45
2018-08-06T14:12:25.304Z,32.44
2018-08-06T14:15:32.576Z,32.28
2018-08-06T14:18:39.427Z,32.30
2018-08-06T14:21:46.645Z,32.34
2018-08-06T14:24:54.079Z,32.25
2018-08-06T14:28:01.401Z,32.15
2018-08-06T14:31:08.474Z,32.25
2018-08-06T14:34:15.800Z,32.29
2018-08-06T14:37:22.582Z,32.22
2018-08-06T14:40:29.539Z,32.17
2018-08-06T14:43:36.438Z,32.06
2018-08-06T14:46:43.009Z,31.92
2018-08-06T14:49:49.844Z,31.86
2018-08-06T14:52:56.455Z,31.97
2018-08-06T14:56:03.005Z,32.04
2018-08-06T14:59:09.624Z,32.05
2018-08-06T15:02:16.775Z,32.08
2018-08-06T15:05:23.371Z,32.16
2018-08-06T15:08:30.149Z,32.18
2018-08-06T15:11:37.069Z,32.17
2018-08-06T15:14:43.874Z,32.16
2018-08-06T15:17:50.777Z,32.17
2018-08-06T15:20:57.383Z,32.19
2018-08-06T15:24:04.220Z,32.19
2018-08-06T15:27:10.815Z,32.24
2018-08-06T15:30:18.018Z,32.28
2018-08-06T15:33:24.985Z,32.17
2018-08-06T15:36:31.712Z,32.13
2018-08-06T15:39:38.448Z,32.09
2018-08-06T15:42:45.365Z,31.99
2018-08-06T15:45:52.229Z,31.87
2018-08-06T15:48:59.104Z,31.85
2018-08-06T15:52:06.026Z,31.80
2018-08-06T15:55:13.174Z,31.77
2018-08-06T15:58:20.433Z,31.78
2018-08-06T16:01:27.055Z,31.73
2018-08-06T16:04:34.258Z,31.67
2018-08-06T16:07:41.507Z,31.69
2018-08-06T16:10:48.130Z,31.63
2018-08-06T16:13:55.304Z,31.61
2018-08-06T16:17:02.578Z,31.72
2018-08-06T16:20:12.144Z,31.79
2018-08-06T16:23:19.281Z,31.76
2018-08-06T16:26:25.826Z,31.70
2018-08-06T16:29:33.273Z,31.63
2018-08-06T16:32:39.888Z,31.58
2018-08-06T16:35:46.722Z,31.54
2018-08-06T16:38:53.311Z,31.46
2018-08-06T16:41:59.888Z,31.37
2018-08-06T16:45:07.736Z,31.39
2018-08-06T16:48:14.561Z,31.39
2018-08-06T16:51:21.431Z,31.32
2018-08-06T16:54:28.357Z,31.28
2018-08-06T16:57:35.743Z,31.24
2018-08-06T17:00:42.583Z,31.13
2018-08-06T17:03:49.208Z,30.99
2018-08-06T17:06:56.267Z,30.94
2018-08-06T17:10:03.139Z,30.85
2018-08-06T17:13:09.764Z,30.80
2018-08-06T17:16:16.591Z,30.84
2018-08-06T17:19:23.181Z,30.86
2018-08-06T17:22:30.179Z,30.84
2018-08-06T17:25:37.391Z,30.81
2018-08-06T17:28:44.529Z,30.78
2018-08-06T17:31:51.127Z,30.78
2018-08-06T17:34:58.258Z,30.78
2018-08-06T17:38:05.597Z,30.75
2018-08-06T17:41:12.584Z,30.61
2018-08-06T17:44:19.432Z,30.51
2018-08-06T17:47:26.078Z,30.45
2018-08-06T17:50:32.287Z,30.37
2018-08-06T17:53:39.048Z,30.27
2018-08-06T17:56:45.672Z,30.17
2018-08-06T17:59:52.419Z,30.09
2018-08-06T18:02:59.217Z,30.05
2018-08-06T18:06:06.711Z,29.99
2018-08-06T18:09:13.920Z,29.81
2018-08-06T18:12:21.153Z,29.55
2018-08-06T18:15:28.005Z,29.33
2018-08-06T18:18:34.843Z,29.23
2018-08-06T18:21:41.472Z,29.21
2018-08-06T18:24:48.624Z,29.20
2018-08-06T18:27:55.636Z,29.21
2018-08-06T18:31:02.774Z,29.17
2018-08-06T18:34:09.377Z,29.15
2018-08-06T18:37:16.301Z,29.09
2018-08-06T18:40:23.078Z,29.02
2018-08-06T18:43:30.257Z,28.95
2018-08-06T18:46:37.388Z,28.87
2018-08-06T18:49:43.989Z,28.80
2018-08-06T18:52:51.483Z,28.75
2018-08-06T18:55:58.335Z,28.68
2018-08-06T18:59:04.936Z,28.58
2018-08-06T19:02:11.702Z,28.48
2018-08-06T19:05:18.655Z,28.41
2018-08-06T19:08:25.837Z,28.35
2018-08-06T19:11:32.657Z,28.26
2018-08-06T19:14:39.294Z,28.12
2018-08-06T19:17:51.739Z,27.91
2018-08-06T19:20:59.037Z,27.83
2018-08-06T19:24:11.067Z,27.84
2018-08-06T19:27:17.799Z,27.81
2018-08-06T19:30:29.894Z,27.64
2018-08-06T19:33:36.723Z,27.54
2018-08-06T19:36:48.766Z,27.53
2018-08-06T19:39:55.594Z,27.50
2018-08-06T19:43:07.453Z,27.47
2018-08-06T19:46:13.970Z,27.43
2018-08-06T19:49:25.926Z,27.38
2018-08-06T19:52:32.829Z,27.34
2018-08-06T19:55:44.854Z,27.31
2018-08-06T19:58:51.609Z,27.25
2018-08-06T20:01:58.496Z,27.19
2018-08-06T20:05:05.551Z,27.15
2018-08-06T20:08:12.297Z,27.10
2018-08-06T20:11:19.274Z,27.03
2018-08-06T20:14:26.139Z,26.98
2018-08-06T20:17:32.925Z,26.93
2018-08-06T20:20:39.744Z,26.86
2018-08-06T20:23:46.792Z,26.77
2018-08-06T20:26:53.629Z,26.70
2018-08-06T20:30:00.514Z,26.62
2018-08-06T20:33:07.746Z,26.41
2018-08-06T20:36:14.307Z,26.33
2018-08-06T20:39:20.836Z,26.33
2018-08-06T20:42:27.758Z,26.28
2018-08-06T20:45:34.582Z,26.19
2018-08-06T20:48:41.445Z,26.09
2018-08-06T20:51:48.140Z,26.06
2018-08-06T20:54:55.072Z,26.07
2018-08-06T20:58:02.829Z,26.09
2018-08-06T21:01:09.682Z,26.04
2018-08-06T21:04:16.507Z,25.95
2018-08-06T21:07:23.355Z,25.85
2018-08-06T21:10:30.187Z,25.77
2018-08-06T21:13:37.121Z,25.70
2018-08-06T21:16:44.915Z,25.66
2018-08-06T21:19:52.053Z,25.61
2018-08-06T21:22:59.511Z,25.55
2018-08-06T21:26:06.917Z,25.43
2018-08-06T21:29:14.061Z,25.33
2018-08-06T21:32:21.102Z,25.31
2018-08-06T21:35:28.666Z,25.31
2018-08-06T21:38:35.499Z,25.30
2018-08-06T21:41:42.359Z,25.29
2018-08-06T21:44:49.196Z,25.27
2018-08-06T21:47:55.773Z,25.21
2018-08-06T21:51:02.594Z,25.13
2018-08-06T21:54:09.780Z,25.04
2018-08-06T21:57:16.274Z,24.97
2018-08-06T22:00:41.954Z,24.93
2018-08-06T22:03:48.864Z,24.89
2018-08-06T22:06:55.769Z,24.85
2018-08-06T22:10:02.604Z,24.80
2018-08-06T22:13:10.136Z,24.77
2018-08-06T22:16:16.968Z,24.72
2018-08-06T22:19:26.871Z,24.68
2018-08-06T22:22:33.742Z,24.66
2018-08-06T22:25:40.623Z,24.63
2018-08-06T22:28:47.137Z,24.59
2018-08-06T22:31:53.769Z,24.55
2018-08-06T22:35:00.592Z,24.52
2018-08-06T22:38:07.184Z,24.47
2018-08-06T22:41:14.134Z,24.40
2018-08-06T22:44:20.978Z,24.33
2018-08-06T22:47:27.816Z,24.25
2018-08-06T22:50:34.331Z,24.21
2018-08-06T22:53:41.301Z,24.18
2018-08-06T22:56:48.092Z,24.11
2018-08-06T22:59:54.946Z,24.08
2018-08-06T23:03:01.642Z,24.04
2018-08-06T23:06:09.431Z,23.98
2018-08-06T23:09:16.138Z,23.93
2018-08-06T23:12:22.857Z,23.89
2018-08-06T23:15:29.706Z,23.84
2018-08-06T23:18:36.552Z,23.83
2018-08-06T23:21:43.939Z,23.82
2018-08-06T23:24:51.151Z,23.78
2018-08-06T23:27:57.411Z,23.74
2018-08-06T23:31:04.005Z,23.72
2018-08-06T23:34:10.869Z,23.73
2018-08-06T23:37:18.042Z,23.74
2018-08-06T23:40:24.625Z,23.75
2018-08-06T23:43:31.463Z,23.72
2018-08-06T23:46:38.290Z,23.68
2018-08-06T23:49:45.115Z,23.65
2018-08-06T23:52:51.988Z,23.54
2018-08-06T23:55:58.488Z,23.42
2018-08-06T23:59:06.244Z,23.37
